createdAt,value
2023-01-19T00:01:47.495Z,36.60
2023-01-19T00:06:49.331Z,35.20
2023-01-19T00:11:55.211Z,36.20
2023-01-19T00:16:59.809Z,33.50
2023-01-19T00:22:01.907Z,34.30
2023-01-19T00:27:04.308Z,35.20
2023-01-19T00:32:06.577Z,34.70
2023-01-19T00:37:10.108Z,35.00
2023-01-19T00:42:33.189Z,39.10
2023-01-19T00:47:35.118Z,40.70
2023-01-19T00:52:39.219Z,36.60
2023-01-19T00:57:42.129Z,44.90
2023-01-19T01:02:44.938Z,47.70
2023-01-19T01:07:49.473Z,49.70
2023-01-19T01:12:56.020Z,49.00
2023-01-19T01:18:01.157Z,42.50
2023-01-19T01:23:03.978Z,50.10
2023-01-19T01:28:08.772Z,44.10
2023-01-19T01:33:11.788Z,40.60
2023-01-19T01:38:13.652Z,36.80
2023-01-19T01:43:18.090Z,37.40
2023-01-19T01:48:27.032Z,35.90
2023-01-19T01:53:33.475Z,35.70
2023-01-19T01:58:37.810Z,37.00
2023-01-19T02:03:39.893Z,40.40
2023-01-19T02:09:17.310Z,41.40
2023-01-19T02:14:19.203Z,39.50
2023-01-19T02:19:30.356Z,38.30
2023-01-19T02:24:33.235Z,42.90
2023-01-19T02:29:36.160Z,44.40
2023-01-19T02:34:38.006Z,43.90
2023-01-19T02:39:52.300Z,48.00
2023-01-19T02:44:56.503Z,45.50
2023-01-19T02:50:01.049Z,45.40
2023-01-19T02:55:33.220Z,45.20
2023-01-19T03:00:48.604Z,49.10
2023-01-19T03:06:24.140Z,44.80
2023-01-19T03:11:38.488Z,45.80
2023-01-19T03:16:48.645Z,44.20
2023-01-19T03:21:56.419Z,45.60
2023-01-19T03:27:07.088Z,47.90
2023-01-19T03:32:16.101Z,52.00
2023-01-19T03:37:21.557Z,51.90
2023-01-19T03:42:25.501Z,50.70
2023-01-19T03:47:28.900Z,48.20
2023-01-19T03:52:39.483Z,52.10
2023-01-19T03:57:42.298Z,52.60
2023-01-19T04:02:53.974Z,51.40
2023-01-19T04:07:56.611Z,46.30
2023-01-19T04:13:00.937Z,41.90
2023-01-19T04:18:03.435Z,45.00
2023-01-19T04:23:05.558Z,44.20
2023-01-19T04:28:07.554Z,41.30
2023-01-19T04:33:10.447Z,44.90
2023-01-19T04:38:13.443Z,43.30
2023-01-19T04:43:15.772Z,44.90
2023-01-19T04:48:18.940Z,37.30
2023-01-19T04:53:21.249Z,43.30
2023-01-19T04:58:50.536Z,35.00
2023-01-19T05:03:53.114Z,43.30
2023-01-19T05:09:03.194Z,39.30
2023-01-19T05:14:05.867Z,41.20
2023-01-19T05:19:08.403Z,52.90
2023-01-19T05:24:13.250Z,62.70
2023-01-19T05:29:17.913Z,59.10
2023-01-19T05:34:20.264Z,72.40
2023-01-19T05:39:42.628Z,63.00
2023-01-19T05:44:44.806Z,56.80
2023-01-19T05:49:46.808Z,51.60
2023-01-19T05:54:48.867Z,48.90
2023-01-19T05:59:51.451Z,48.80
2023-01-19T06:04:54.897Z,57.60
2023-01-19T06:09:58.145Z,51.80
2023-01-19T06:15:00.473Z,49.30
2023-01-19T06:20:03.677Z,51.00
2023-01-19T06:25:05.992Z,57.90
2023-01-19T06:30:09.446Z,50.00
2023-01-19T06:40:20.794Z,40.20
2023-01-19T06:45:23.265Z,36.00
2023-01-19T06:50:25.313Z,35.80
2023-01-19T06:55:27.673Z,35.60
2023-01-19T07:00:30.141Z,36.60
2023-01-19T07:05:32.140Z,40.80
2023-01-19T07:11:24.949Z,33.90
2023-01-19T07:15:56.243Z,32.30
2023-01-19T07:20:58.835Z,38.10
2023-01-19T07:26:01.793Z,35.30
2023-01-19T07:31:14.323Z,39.30
2023-01-19T07:36:18.597Z,35.60
2023-01-19T07:41:20.675Z,33.00
2023-01-19T07:46:24.256Z,34.50
2023-01-19T07:51:29.209Z,33.30
2023-01-19T07:56:33.923Z,32.80
2023-01-19T08:01:36.542Z,28.70
2023-01-19T08:06:39.917Z,32.90
2023-01-19T08:11:42.920Z,28.20
2023-01-19T08:16:45.236Z,34.00
2023-01-19T08:21:47.495Z,34.50
2023-01-19T08:26:59.203Z,33.10
2023-01-19T08:32:03.099Z,26.90
2023-01-19T08:37:05.741Z,23.00
2023-01-19T08:42:07.607Z,25.90
2023-01-19T08:47:09.494Z,22.10
2023-01-19T08:52:13.088Z,25.60
2023-01-19T08:57:16.249Z,24.20
2023-01-19T09:02:20.077Z,26.20
2023-01-19T09:07:22.115Z,27.80
2023-01-19T09:12:24.024Z,23.90
2023-01-19T09:21:23.472Z,24.70
2023-01-19T09:26:28.592Z,24.40
2023-01-19T09:31:30.922Z,25.80
2023-01-19T09:36:33.631Z,24.00
2023-01-19T09:41:39.823Z,22.90
2023-01-19T09:46:42.818Z,22.60
2023-01-19T09:51:48.952Z,20.20
2023-01-19T09:56:54.237Z,18.80
2023-01-19T10:02:21.085Z,18.20
2023-01-19T10:07:59.136Z,17.30
2023-01-19T10:13:17.201Z,19.60
2023-01-19T10:18:43.300Z,18.70
2023-01-19T10:24:06.710Z,20.20
2023-01-19T10:29:30.302Z,23.30
2023-01-19T10:34:32.346Z,23.90
2023-01-19T10:39:38.523Z,21.50
2023-01-19T10:44:41.844Z,20.90
2023-01-19T10:49:44.869Z,16.00
2023-01-19T10:54:48.583Z,18.40
2023-01-19T10:59:51.470Z,15.90
2023-01-19T11:04:56.723Z,18.90
2023-01-19T11:10:21.233Z,18.00
2023-01-19T11:15:31.637Z,17.90
2023-01-19T11:20:49.685Z,18.00
2023-01-19T11:25:58.853Z,17.90
2023-01-19T11:31:19.472Z,17.80
2023-01-19T11:36:23.210Z,16.70
2023-01-19T11:41:39.288Z,16.90
2023-01-19T11:46:47.999Z,14.80
2023-01-19T11:52:29.711Z,15.30
2023-01-19T11:57:31.963Z,13.70
2023-01-19T12:02:44.843Z,14.90
2023-01-19T12:07:49.382Z,16.30
2023-01-19T12:12:56.473Z,15.40
2023-01-19T12:18:02.398Z,17.00
2023-01-19T12:23:48.140Z,18.30
2023-01-19T12:28:53.063Z,15.30
2023-01-19T12:33:55.497Z,16.20
2023-01-19T12:39:30.868Z,17.90
2023-01-19T12:44:36.440Z,17.10
2023-01-19T12:49:50.828Z,18.10
2023-01-19T12:55:21.874Z,18.80
2023-01-19T13:00:47.352Z,15.60
2023-01-19T13:05:59.397Z,15.00
2023-01-19T13:11:15.987Z,15.60
2023-01-19T13:16:36.114Z,15.80
2023-01-19T13:21:58.941Z,17.20
2023-01-19T13:27:03.512Z,15.70
2023-01-19T13:32:19.363Z,16.80
2023-01-19T13:37:26.155Z,17.20
2023-01-19T13:42:40.581Z,14.50
2023-01-19T13:47:47.241Z,14.10
2023-01-19T13:52:54.086Z,15.20
2023-01-19T13:57:57.365Z,13.50
2023-01-19T14:03:21.488Z,14.20
2023-01-19T14:08:25.815Z,12.70
2023-01-19T14:13:44.911Z,13.50
2023-01-19T14:18:58.537Z,12.40
2023-01-19T14:24:17.110Z,13.60
2023-01-19T14:29:41.010Z,14.00
2023-01-19T14:34:45.006Z,15.00
2023-01-19T14:40:18.451Z,14.70
2023-01-19T14:45:43.026Z,13.70
2023-01-19T14:51:01.907Z,17.70
2023-01-19T14:56:06.561Z,16.40
2023-01-19T15:01:09.173Z,17.00
2023-01-19T15:06:18.071Z,19.30
2023-01-19T15:11:31.469Z,21.00
2023-01-19T15:16:34.778Z,17.10
2023-01-19T15:21:37.534Z,20.30
2023-01-19T15:26:41.786Z,19.20
2023-01-19T15:31:44.786Z,20.20
2023-01-19T15:36:47.705Z,19.30
2023-01-19T15:41:49.996Z,20.00
2023-01-19T15:46:54.601Z,19.00
2023-01-19T15:51:58.993Z,21.40
2023-01-19T15:57:00.965Z,19.40
2023-01-19T16:02:03.900Z,19.00
2023-01-19T16:07:15.697Z,18.80
2023-01-19T16:12:17.736Z,19.30
2023-01-19T16:17:20.377Z,18.10
2023-01-19T16:22:22.858Z,20.90
2023-01-19T16:27:25.652Z,22.20
2023-01-19T16:32:28.010Z,19.60
2023-01-19T16:37:33.173Z,20.70
2023-01-19T16:42:41.913Z,21.30
2023-01-19T16:47:52.652Z,18.80
2023-01-19T16:58:01.076Z,19.10
2023-01-19T17:03:06.950Z,18.80
2023-01-19T17:08:21.457Z,20.50
2023-01-19T17:13:52.779Z,19.40
2023-01-19T17:19:17.700Z,19.80
2023-01-19T17:24:58.972Z,20.60
2023-01-19T17:30:10.679Z,20.70
2023-01-19T17:35:13.611Z,21.80
2023-01-19T17:40:18.574Z,20.20
2023-01-19T17:45:20.539Z,20.60
2023-01-19T17:50:22.784Z,23.40
2023-01-19T17:55:25.273Z,24.10
2023-01-19T18:00:27.651Z,19.60
2023-01-19T18:05:30.081Z,22.20
2023-01-19T18:10:41.336Z,19.50
2023-01-19T18:15:43.800Z,22.90
2023-01-19T18:20:47.103Z,24.40
2023-01-19T18:25:49.569Z,25.90
2023-01-19T18:30:52.132Z,26.50
2023-01-19T18:35:55.912Z,28.40
2023-01-19T18:41:07.761Z,29.30
2023-01-19T18:46:10.952Z,29.40
2023-01-19T18:51:15.818Z,29.60
2023-01-19T18:56:18.713Z,31.00
2023-01-19T19:01:35.194Z,29.40
2023-01-19T19:06:37.675Z,28.30
2023-01-19T19:11:40.626Z,47.10
2023-01-19T19:16:42.891Z,31.10
2023-01-19T19:21:45.229Z,30.50
2023-01-19T19:26:48.327Z,35.00
2023-01-19T19:31:50.911Z,28.30
2023-01-19T19:36:53.802Z,30.10
2023-01-19T19:41:55.738Z,31.50
2023-01-19T19:46:57.792Z,29.80
2023-01-19T19:51:59.989Z,28.20
2023-01-19T19:57:04.948Z,27.80
2023-01-19T20:02:08.869Z,29.20
2023-01-19T20:07:11.381Z,31.90
2023-01-19T20:12:16.937Z,24.40
2023-01-19T20:17:21.013Z,33.20
2023-01-19T20:22:23.877Z,29.60
2023-01-19T20:27:26.365Z,33.60
2023-01-19T20:32:28.718Z,30.50
2023-01-19T20:37:31.448Z,32.70
2023-01-19T20:42:33.794Z,32.10
2023-01-19T20:47:35.845Z,32.10
2023-01-19T20:52:37.778Z,35.70
2023-01-19T20:57:40.612Z,35.50
2023-01-19T21:02:43.193Z,32.80
2023-01-19T21:07:46.559Z,31.90
2023-01-19T21:12:58.213Z,35.60
2023-01-19T21:18:01.951Z,38.30
2023-01-19T21:23:04.814Z,38.70
2023-01-19T21:28:07.446Z,35.40
2023-01-19T21:33:11.234Z,40.70
2023-01-19T21:38:13.783Z,41.50
2023-01-19T21:43:19.926Z,41.10
2023-01-19T21:48:22.704Z,38.70
2023-01-19T21:53:25.262Z,40.60
2023-01-19T21:58:27.862Z,38.80
2023-01-19T22:03:30.129Z,36.00
2023-01-19T22:08:32.962Z,37.00
2023-01-19T22:13:40.275Z,37.10
2023-01-19T22:18:45.561Z,39.00
2023-01-19T22:23:53.166Z,38.80
2023-01-19T22:28:59.054Z,40.00
2023-01-19T22:34:13.972Z,40.10
2023-01-19T22:39:16.110Z,39.40
2023-01-19T22:44:21.031Z,40.20
2023-01-19T22:49:23.966Z,38.20
2023-01-19T22:54:25.915Z,37.30
2023-01-19T22:59:28.304Z,38.50
2023-01-19T23:04:30.299Z,37.80
2023-01-19T23:09:32.802Z,38.30
2023-01-19T23:14:36.252Z,37.80
2023-01-19T23:19:38.605Z,36.40
2023-01-19T23:24:41.101Z,37.30
2023-01-19T23:29:43.041Z,36.20
2023-01-19T23:34:45.538Z,35.40
2023-01-19T23:39:48.016Z,36.20
2023-01-19T23:44:50.565Z,37.10
2023-01-19T23:49:53.205Z,38.60
2023-01-19T23:54:56.510Z,30.60
2023-01-19T23:59:58.528Z,36.50
